sensor_id;sensor_type;location;lat;lon;timestamp;P1;durP1;ratioP1;P2;durP2;ratioP2
69280;SDS011;56392;51.082;17.080;2023-02-28T00:00:43;32.03;;;12.85;;
69280;SDS011;56392;51.082;17.080;2023-02-28T00:06:08;28.08;;;12.02;;
69280;SDS011;56392;51.082;17.080;2023-02-28T00:11:32;28.43;;;11.10;;
69280;SDS011;56392;51.082;17.080;2023-02-28T00:17:00;31.10;;;11.73;;
69280;SDS011;56392;51.082;17.080;2023-02-28T00:22:23;34.72;;;12.32;;
69280;SDS011;56392;51.082;17.080;2023-02-28T00:27:46;26.13;;;10.83;;
69280;SDS011;56392;51.082;17.080;2023-02-28T00:33:11;32.17;;;12.18;;
69280;SDS011;56392;51.082;17.080;2023-02-28T00:38:34;31.77;;;11.88;;
69280;SDS011;56392;51.082;17.080;2023-02-28T00:43:58;28.13;;;11.33;;
69280;SDS011;56392;51.082;17.080;2023-02-28T00:49:22;32.50;;;12.90;;
69280;SDS011;56392;51.082;17.080;2023-02-28T00:54:46;29.38;;;11.80;;
69280;SDS011;56392;51.082;17.080;2023-02-28T01:00:09;29.40;;;12.23;;
69280;SDS011;56392;51.082;17.080;2023-02-28T01:05:35;29.33;;;11.47;;
69280;SDS011;56392;51.082;17.080;2023-02-28T01:11:06;29.90;;;11.23;;
69280;SDS011;56392;51.082;17.080;2023-02-28T01:16:31;29.33;;;11.48;;
69280;SDS011;56392;51.082;17.080;2023-02-28T01:21:55;26.60;;;11.43;;
69280;SDS011;56392;51.082;17.080;2023-02-28T01:27:18;28.48;;;11.73;;
69280;SDS011;56392;51.082;17.080;2023-02-28T01:32:41;29.52;;;11.65;;
69280;SDS011;56392;51.082;17.080;2023-02-28T01:38:06;27.47;;;11.50;;
69280;SDS011;56392;51.082;17.080;2023-02-28T01:43:31;26.80;;;11.45;;
69280;SDS011;56392;51.082;17.080;2023-02-28T01:49:15;29.50;;;11.35;;
69280;SDS011;56392;51.082;17.080;2023-02-28T01:54:42;25.80;;;10.47;;
69280;SDS011;56392;51.082;17.080;2023-02-28T02:00:09;26.23;;;10.55;;
69280;SDS011;56392;51.082;17.080;2023-02-28T02:05:36;29.48;;;11.68;;
69280;SDS011;56392;51.082;17.080;2023-02-28T02:11:02;26.00;;;10.80;;
69280;SDS011;56392;51.082;17.080;2023-02-28T02:16:29;28.90;;;11.00;;
69280;SDS011;56392;51.082;17.080;2023-02-28T02:22:09;28.30;;;10.88;;
69280;SDS011;56392;51.082;17.080;2023-02-28T02:27:54;28.17;;;10.77;;
69280;SDS011;56392;51.082;17.080;2023-02-28T02:39:44;24.42;;;10.02;;
69280;SDS011;56392;51.082;17.080;2023-02-28T02:45:14;29.13;;;10.48;;
69280;SDS011;56392;51.082;17.080;2023-02-28T02:50:44;30.57;;;11.37;;
69280;SDS011;56392;51.082;17.080;2023-02-28T02:56:11;27.33;;;10.95;;
69280;SDS011;56392;51.082;17.080;2023-02-28T03:01:35;28.67;;;11.27;;
69280;SDS011;56392;51.082;17.080;2023-02-28T03:07:03;28.17;;;11.10;;
69280;SDS011;56392;51.082;17.080;2023-02-28T03:12:28;32.67;;;11.30;;
69280;SDS011;56392;51.082;17.080;2023-02-28T03:18:01;32.20;;;11.73;;
69280;SDS011;56392;51.082;17.080;2023-02-28T03:23:34;26.67;;;10.37;;
69280;SDS011;56392;51.082;17.080;2023-02-28T03:29:02;34.40;;;11.80;;
69280;SDS011;56392;51.082;17.080;2023-02-28T03:34:28;31.33;;;11.57;;
69280;SDS011;56392;51.082;17.080;2023-02-28T03:39:57;30.10;;;11.95;;
69280;SDS011;56392;51.082;17.080;2023-02-28T03:45:24;27.77;;;10.97;;
69280;SDS011;56392;51.082;17.080;2023-02-28T03:50:49;28.33;;;11.27;;
69280;SDS011;56392;51.082;17.080;2023-02-28T03:56:17;28.63;;;11.05;;
69280;SDS011;56392;51.082;17.080;2023-02-28T04:01:45;31.57;;;11.50;;
69280;SDS011;56392;51.082;17.080;2023-02-28T04:07:10;28.50;;;11.63;;
69280;SDS011;56392;51.082;17.080;2023-02-28T04:12:35;31.98;;;11.15;;
69280;SDS011;56392;51.082;17.080;2023-02-28T04:17:58;28.17;;;11.43;;
69280;SDS011;56392;51.082;17.080;2023-02-28T04:23:21;29.42;;;12.38;;
69280;SDS011;56392;51.082;17.080;2023-02-28T04:28:46;28.88;;;11.30;;
69280;SDS011;56392;51.082;17.080;2023-02-28T04:34:09;29.97;;;11.67;;
69280;SDS011;56392;51.082;17.080;2023-02-28T04:39:34;30.80;;;11.00;;
69280;SDS011;56392;51.082;17.080;2023-02-28T04:44:59;28.90;;;11.45;;
69280;SDS011;56392;51.082;17.080;2023-02-28T04:50:22;30.50;;;11.80;;
69280;SDS011;56392;51.082;17.080;2023-02-28T04:55:46;28.70;;;10.97;;
69280;SDS011;56392;51.082;17.080;2023-02-28T05:01:17;28.77;;;11.00;;
69280;SDS011;56392;51.082;17.080;2023-02-28T05:06:45;26.10;;;10.88;;
69280;SDS011;56392;51.082;17.080;2023-02-28T05:12:09;28.43;;;11.67;;
69280;SDS011;56392;51.082;17.080;2023-02-28T05:17:34;27.67;;;10.75;;
69280;SDS011;56392;51.082;17.080;2023-02-28T05:22:57;30.05;;;11.38;;
69280;SDS011;56392;51.082;17.080;2023-02-28T05:28:22;29.13;;;11.27;;
69280;SDS011;56392;51.082;17.080;2023-02-28T05:33:47;28.40;;;11.13;;
69280;SDS011;56392;51.082;17.080;2023-02-28T05:39:10;25.38;;;10.68;;
69280;SDS011;56392;51.082;17.080;2023-02-28T05:44:33;25.07;;;10.87;;
69280;SDS011;56392;51.082;17.080;2023-02-28T05:49:58;32.63;;;12.25;;
69280;SDS011;56392;51.082;17.080;2023-02-28T05:55:21;26.83;;;10.85;;
69280;SDS011;56392;51.082;17.080;2023-02-28T06:00:45;26.40;;;10.77;;
69280;SDS011;56392;51.082;17.080;2023-02-28T06:06:13;23.65;;;9.80;;
69280;SDS011;56392;51.082;17.080;2023-02-28T06:11:36;27.25;;;10.57;;
69280;SDS011;56392;51.082;17.080;2023-02-28T06:17:00;29.97;;;12.20;;
69280;SDS011;56392;51.082;17.080;2023-02-28T06:22:25;32.73;;;13.60;;
69280;SDS011;56392;51.082;17.080;2023-02-28T06:27:48;33.55;;;13.60;;
69280;SDS011;56392;51.082;17.080;2023-02-28T06:33:12;29.50;;;12.02;;
69280;SDS011;56392;51.082;17.080;2023-02-28T06:38:36;28.23;;;10.87;;
69280;SDS011;56392;51.082;17.080;2023-02-28T06:43:59;22.85;;;9.77;;
69280;SDS011;56392;51.082;17.080;2023-02-28T06:49:23;17.77;;;8.40;;
69280;SDS011;56392;51.082;17.080;2023-02-28T06:54:47;20.07;;;8.77;;
69280;SDS011;56392;51.082;17.080;2023-02-28T07:00:21;21.90;;;9.10;;
69280;SDS011;56392;51.082;17.080;2023-02-28T07:05:44;21.83;;;9.27;;
69280;SDS011;56392;51.082;17.080;2023-02-28T07:11:09;20.73;;;8.80;;
69280;SDS011;56392;51.082;17.080;2023-02-28T07:16:32;21.95;;;8.95;;
69280;SDS011;56392;51.082;17.080;2023-02-28T07:21:55;25.08;;;8.70;;
69280;SDS011;56392;51.082;17.080;2023-02-28T07:27:20;20.30;;;9.23;;
69280;SDS011;56392;51.082;17.080;2023-02-28T07:32:46;24.08;;;9.30;;
69280;SDS011;56392;51.082;17.080;2023-02-28T07:38:10;28.85;;;11.43;;
69280;SDS011;56392;51.082;17.080;2023-02-28T07:43:37;21.13;;;8.67;;
69280;SDS011;56392;51.082;17.080;2023-02-28T07:49:00;20.98;;;9.13;;
69280;SDS011;56392;51.082;17.080;2023-02-28T07:54:24;21.98;;;9.68;;
69280;SDS011;56392;51.082;17.080;2023-02-28T07:59:48;22.47;;;9.83;;
69280;SDS011;56392;51.082;17.080;2023-02-28T08:05:12;16.08;;;6.43;;
69280;SDS011;56392;51.082;17.080;2023-02-28T08:10:36;16.45;;;7.90;;
69280;SDS011;56392;51.082;17.080;2023-02-28T08:16:01;12.50;;;5.40;;
69280;SDS011;56392;51.082;17.080;2023-02-28T08:21:25;17.47;;;7.37;;
69280;SDS011;56392;51.082;17.080;2023-02-28T08:26:48;15.98;;;7.63;;
69280;SDS011;56392;51.082;17.080;2023-02-28T08:32:12;15.38;;;7.30;;
69280;SDS011;56392;51.082;17.080;2023-02-28T08:37:35;17.03;;;7.20;;
69280;SDS011;56392;51.082;17.080;2023-02-28T08:42:59;16.35;;;6.53;;
69280;SDS011;56392;51.082;17.080;2023-02-28T08:48:23;14.23;;;6.43;;
69280;SDS011;56392;51.082;17.080;2023-02-28T08:53:46;14.67;;;6.17;;
69280;SDS011;56392;51.082;17.080;2023-02-28T08:59:10;12.55;;;4.47;;
69280;SDS011;56392;51.082;17.080;2023-02-28T09:04:35;13.50;;;5.30;;
69280;SDS011;56392;51.082;17.080;2023-02-28T09:09:58;12.60;;;4.47;;
69280;SDS011;56392;51.082;17.080;2023-02-28T09:15:21;10.57;;;4.60;;
69280;SDS011;56392;51.082;17.080;2023-02-28T09:20:46;11.82;;;5.00;;
69280;SDS011;56392;51.082;17.080;2023-02-28T09:26:12;11.48;;;4.65;;
69280;SDS011;56392;51.082;17.080;2023-02-28T09:31:36;11.77;;;5.00;;
69280;SDS011;56392;51.082;17.080;2023-02-28T09:37:00;10.63;;;3.83;;
69280;SDS011;56392;51.082;17.080;2023-02-28T09:42:30;10.13;;;4.10;;
69280;SDS011;56392;51.082;17.080;2023-02-28T09:47:56;11.87;;;5.07;;
69280;SDS011;56392;51.082;17.080;2023-02-28T09:53:27;11.13;;;4.93;;
69280;SDS011;56392;51.082;17.080;2023-02-28T09:58:57;13.40;;;6.05;;
69280;SDS011;56392;51.082;17.080;2023-02-28T10:04:28;11.93;;;5.37;;
69280;SDS011;56392;51.082;17.080;2023-02-28T10:10:07;12.07;;;4.70;;
69280;SDS011;56392;51.082;17.080;2023-02-28T10:15:42;10.65;;;4.43;;
69280;SDS011;56392;51.082;17.080;2023-02-28T10:21:10;12.65;;;4.82;;
69280;SDS011;56392;51.082;17.080;2023-02-28T10:26:41;12.13;;;4.57;;
69280;SDS011;56392;51.082;17.080;2023-02-28T10:32:08;11.77;;;5.10;;
69280;SDS011;56392;51.082;17.080;2023-02-28T10:37:37;13.13;;;5.30;;
69280;SDS011;56392;51.082;17.080;2023-02-28T10:43:02;13.47;;;5.10;;
69280;SDS011;56392;51.082;17.080;2023-02-28T10:48:29;13.52;;;5.40;;
69280;SDS011;56392;51.082;17.080;2023-02-28T10:53:57;13.18;;;5.65;;
69280;SDS011;56392;51.082;17.080;2023-02-28T10:59:28;14.43;;;5.77;;
69280;SDS011;56392;51.082;17.080;2023-02-28T11:04:52;13.30;;;5.90;;
69280;SDS011;56392;51.082;17.080;2023-02-28T11:10:16;13.50;;;5.35;;
69280;SDS011;56392;51.082;17.080;2023-02-28T11:15:46;14.63;;;6.30;;
69280;SDS011;56392;51.082;17.080;2023-02-28T11:21:22;15.83;;;6.17;;
69280;SDS011;56392;51.082;17.080;2023-02-28T11:26:48;14.90;;;5.82;;
69280;SDS011;56392;51.082;17.080;2023-02-28T11:32:16;13.75;;;5.90;;
69280;SDS011;56392;51.082;17.080;2023-02-28T11:37:41;12.80;;;5.80;;
69280;SDS011;56392;51.082;17.080;2023-02-28T11:43:09;14.02;;;5.40;;
69280;SDS011;56392;51.082;17.080;2023-02-28T11:48:45;12.77;;;5.43;;
69280;SDS011;56392;51.082;17.080;2023-02-28T11:54:21;12.77;;;5.67;;
69280;SDS011;56392;51.082;17.080;2023-02-28T11:59:52;12.87;;;5.43;;
69280;SDS011;56392;51.082;17.080;2023-02-28T12:05:26;12.32;;;5.25;;
69280;SDS011;56392;51.082;17.080;2023-02-28T12:10:57;14.02;;;6.28;;
69280;SDS011;56392;51.082;17.080;2023-02-28T12:16:34;14.77;;;5.83;;
69280;SDS011;56392;51.082;17.080;2023-02-28T12:22:21;15.00;;;5.95;;
69280;SDS011;56392;51.082;17.080;2023-02-28T12:27:53;18.27;;;6.70;;
69280;SDS011;56392;51.082;17.080;2023-02-28T12:33:17;19.23;;;7.17;;
69280;SDS011;56392;51.082;17.080;2023-02-28T12:38:47;16.40;;;7.20;;
69280;SDS011;56392;51.082;17.080;2023-02-28T12:44:16;17.60;;;7.10;;
69280;SDS011;56392;51.082;17.080;2023-02-28T12:49:43;17.87;;;6.97;;
69280;SDS011;56392;51.082;17.080;2023-02-28T12:55:14;18.40;;;7.70;;
69280;SDS011;56392;51.082;17.080;2023-02-28T13:00:46;16.88;;;7.45;;
69280;SDS011;56392;51.082;17.080;2023-02-28T13:06:30;19.20;;;7.40;;
69280;SDS011;56392;51.082;17.080;2023-02-28T13:12:13;18.73;;;7.40;;
69280;SDS011;56392;51.082;17.080;2023-02-28T13:17:38;18.67;;;7.45;;
69280;SDS011;56392;51.082;17.080;2023-02-28T13:23:03;18.33;;;7.15;;
69280;SDS011;56392;51.082;17.080;2023-02-28T13:34:47;17.67;;;7.55;;
69280;SDS011;56392;51.082;17.080;2023-02-28T13:47:19;20.00;;;7.77;;
69280;SDS011;56392;51.082;17.080;2023-02-28T13:52:48;20.20;;;7.90;;
69280;SDS011;56392;51.082;17.080;2023-02-28T13:58:34;22.60;;;9.18;;
69280;SDS011;56392;51.082;17.080;2023-02-28T14:04:18;20.77;;;9.43;;
69280;SDS011;56392;51.082;17.080;2023-02-28T14:10:16;20.73;;;8.87;;
69280;SDS011;56392;51.082;17.080;2023-02-28T14:15:47;22.85;;;9.80;;
69280;SDS011;56392;51.082;17.080;2023-02-28T14:21:24;23.05;;;10.02;;
69280;SDS011;56392;51.082;17.080;2023-02-28T14:27:06;21.90;;;10.00;;
69280;SDS011;56392;51.082;17.080;2023-02-28T14:32:41;22.88;;;10.40;;
69280;SDS011;56392;51.082;17.080;2023-02-28T14:38:13;24.77;;;10.18;;
69280;SDS011;56392;51.082;17.080;2023-02-28T14:43:47;21.90;;;9.00;;
69280;SDS011;56392;51.082;17.080;2023-02-28T14:49:17;22.23;;;9.27;;
69280;SDS011;56392;51.082;17.080;2023-02-28T14:54:44;20.80;;;9.18;;
69280;SDS011;56392;51.082;17.080;2023-02-28T15:00:12;20.17;;;8.63;;
69280;SDS011;56392;51.082;17.080;2023-02-28T15:05:39;18.57;;;8.20;;
69280;SDS011;56392;51.082;17.080;2023-02-28T15:11:04;21.90;;;9.20;;
69280;SDS011;56392;51.082;17.080;2023-02-28T15:16:31;20.45;;;8.15;;
69280;SDS011;56392;51.082;17.080;2023-02-28T15:21:58;20.07;;;8.30;;
69280;SDS011;56392;51.082;17.080;2023-02-28T15:27:28;16.75;;;7.18;;
69280;SDS011;56392;51.082;17.080;2023-02-28T15:33:04;18.55;;;7.97;;
69280;SDS011;56392;51.082;17.080;2023-02-28T15:38:33;20.63;;;7.73;;
69280;SDS011;56392;51.082;17.080;2023-02-28T15:44:15;18.97;;;7.13;;
69280;SDS011;56392;51.082;17.080;2023-02-28T15:49:46;17.65;;;7.47;;
69280;SDS011;56392;51.082;17.080;2023-02-28T15:55:11;18.83;;;7.78;;
69280;SDS011;56392;51.082;17.080;2023-02-28T16:00:44;18.57;;;7.33;;
69280;SDS011;56392;51.082;17.080;2023-02-28T16:06:23;16.23;;;6.97;;
69280;SDS011;56392;51.082;17.080;2023-02-28T16:11:55;19.67;;;8.18;;
69280;SDS011;56392;51.082;17.080;2023-02-28T16:17:21;19.77;;;7.97;;
69280;SDS011;56392;51.082;17.080;2023-02-28T16:22:45;15.93;;;7.18;;
69280;SDS011;56392;51.082;17.080;2023-02-28T16:28:09;20.73;;;7.78;;
69280;SDS011;56392;51.082;17.080;2023-02-28T16:33:39;16.43;;;7.40;;
69280;SDS011;56392;51.082;17.080;2023-02-28T16:39:02;16.10;;;7.20;;
69280;SDS011;56392;51.082;17.080;2023-02-28T16:44:29;18.10;;;8.40;;
69280;SDS011;56392;51.082;17.080;2023-02-28T16:49:55;18.50;;;8.27;;
69280;SDS011;56392;51.082;17.080;2023-02-28T16:55:18;19.37;;;8.40;;
69280;SDS011;56392;51.082;17.080;2023-02-28T17:00:42;20.35;;;9.70;;
69280;SDS011;56392;51.082;17.080;2023-02-28T17:06:14;21.83;;;9.60;;
69280;SDS011;56392;51.082;17.080;2023-02-28T17:11:44;20.67;;;9.47;;
69280;SDS011;56392;51.082;17.080;2023-02-28T17:17:09;19.92;;;9.30;;
69280;SDS011;56392;51.082;17.080;2023-02-28T17:22:39;21.77;;;8.73;;
69280;SDS011;56392;51.082;17.080;2023-02-28T17:28:02;25.60;;;11.57;;
69280;SDS011;56392;51.082;17.080;2023-02-28T17:33:26;27.17;;;11.33;;
69280;SDS011;56392;51.082;17.080;2023-02-28T17:38:50;20.35;;;9.95;;
69280;SDS011;56392;51.082;17.080;2023-02-28T17:44:14;24.35;;;11.38;;
69280;SDS011;56392;51.082;17.080;2023-02-28T17:49:37;24.27;;;10.93;;
69280;SDS011;56392;51.082;17.080;2023-02-28T17:55:02;23.00;;;10.35;;
69280;SDS011;56392;51.082;17.080;2023-02-28T18:00:25;22.08;;;9.93;;
69280;SDS011;56392;51.082;17.080;2023-02-28T18:05:48;22.03;;;10.33;;
69280;SDS011;56392;51.082;17.080;2023-02-28T18:11:14;25.35;;;11.10;;
69280;SDS011;56392;51.082;17.080;2023-02-28T18:16:39;26.17;;;11.30;;
69280;SDS011;56392;51.082;17.080;2023-02-28T18:22:02;26.80;;;12.20;;
69280;SDS011;56392;51.082;17.080;2023-02-28T18:27:29;27.43;;;12.53;;
69280;SDS011;56392;51.082;17.080;2023-02-28T18:32:52;34.28;;;14.82;;
69280;SDS011;56392;51.082;17.080;2023-02-28T18:38:16;32.65;;;13.50;;
69280;SDS011;56392;51.082;17.080;2023-02-28T18:43:42;39.90;;;16.80;;
69280;SDS011;56392;51.082;17.080;2023-02-28T18:49:05;32.92;;;15.57;;
69280;SDS011;56392;51.082;17.080;2023-02-28T18:54:29;37.45;;;15.90;;
69280;SDS011;56392;51.082;17.080;2023-02-28T18:59:54;29.40;;;14.80;;
69280;SDS011;56392;51.082;17.080;2023-02-28T19:05:18;32.85;;;14.98;;
69280;SDS011;56392;51.082;17.080;2023-02-28T19:10:44;35.78;;;16.40;;
69280;SDS011;56392;51.082;17.080;2023-02-28T19:16:09;34.23;;;16.03;;
69280;SDS011;56392;51.082;17.080;2023-02-28T19:21:33;38.40;;;16.87;;
69280;SDS011;56392;51.082;17.080;2023-02-28T19:26:57;36.08;;;16.70;;
69280;SDS011;56392;51.082;17.080;2023-02-28T19:32:22;39.00;;;17.50;;
69280;SDS011;56392;51.082;17.080;2023-02-28T19:37:45;42.60;;;17.67;;
69280;SDS011;56392;51.082;17.080;2023-02-28T19:43:13;41.85;;;18.38;;
69280;SDS011;56392;51.082;17.080;2023-02-28T19:48:37;45.50;;;18.83;;
69280;SDS011;56392;51.082;17.080;2023-02-28T19:54:03;37.37;;;17.03;;
69280;SDS011;56392;51.082;17.080;2023-02-28T19:59:26;41.55;;;17.73;;
69280;SDS011;56392;51.082;17.080;2023-02-28T20:04:53;44.80;;;18.58;;
69280;SDS011;56392;51.082;17.080;2023-02-28T20:10:18;41.70;;;18.63;;
69280;SDS011;56392;51.082;17.080;2023-02-28T20:15:41;44.60;;;18.70;;
69280;SDS011;56392;51.082;17.080;2023-02-28T20:21:07;38.50;;;17.83;;
69280;SDS011;56392;51.082;17.080;2023-02-28T20:26:31;42.00;;;17.73;;
69280;SDS011;56392;51.082;17.080;2023-02-28T20:31:54;43.27;;;18.37;;
69280;SDS011;56392;51.082;17.080;2023-02-28T20:37:19;46.72;;;19.15;;
69280;SDS011;56392;51.082;17.080;2023-02-28T20:42:43;42.17;;;19.45;;
69280;SDS011;56392;51.082;17.080;2023-02-28T20:48:06;42.77;;;19.67;;
69280;SDS011;56392;51.082;17.080;2023-02-28T20:53:31;41.20;;;19.25;;
69280;SDS011;56392;51.082;17.080;2023-02-28T20:58:55;46.03;;;20.38;;
69280;SDS011;56392;51.082;17.080;2023-02-28T21:04:18;46.90;;;19.50;;
69280;SDS011;56392;51.082;17.080;2023-02-28T21:09:43;46.45;;;18.88;;
69280;SDS011;56392;51.082;17.080;2023-02-28T21:15:07;41.83;;;18.77;;
69280;SDS011;56392;51.082;17.080;2023-02-28T21:20:31;43.43;;;18.57;;
69280;SDS011;56392;51.082;17.080;2023-02-28T21:25:57;46.40;;;20.05;;
69280;SDS011;56392;51.082;17.080;2023-02-28T21:31:24;46.63;;;20.17;;
69280;SDS011;56392;51.082;17.080;2023-02-28T21:36:48;45.63;;;20.93;;
69280;SDS011;56392;51.082;17.080;2023-02-28T21:42:13;52.20;;;21.40;;
69280;SDS011;56392;51.082;17.080;2023-02-28T21:47:36;55.47;;;21.92;;
69280;SDS011;56392;51.082;17.080;2023-02-28T21:52:59;52.20;;;22.40;;
69280;SDS011;56392;51.082;17.080;2023-02-28T21:58:24;56.97;;;22.95;;
69280;SDS011;56392;51.082;17.080;2023-02-28T22:03:47;56.90;;;23.63;;
69280;SDS011;56392;51.082;17.080;2023-02-28T22:09:11;61.93;;;24.03;;
69280;SDS011;56392;51.082;17.080;2023-02-28T22:14:36;55.53;;;22.30;;
69280;SDS011;56392;51.082;17.080;2023-02-28T22:20:00;52.72;;;22.23;;
69280;SDS011;56392;51.082;17.080;2023-02-28T22:25:24;54.13;;;22.10;;
69280;SDS011;56392;51.082;17.080;2023-02-28T22:30:49;58.95;;;22.70;;
69280;SDS011;56392;51.082;17.080;2023-02-28T22:36:12;56.80;;;22.00;;
69280;SDS011;56392;51.082;17.080;2023-02-28T22:41:37;50.43;;;21.80;;
69280;SDS011;56392;51.082;17.080;2023-02-28T22:47:02;52.28;;;21.98;;
69280;SDS011;56392;51.082;17.080;2023-02-28T22:52:25;50.60;;;21.63;;
69280;SDS011;56392;51.082;17.080;2023-02-28T22:57:48;52.07;;;22.23;;
69280;SDS011;56392;51.082;17.080;2023-02-28T23:03:13;53.97;;;22.60;;
69280;SDS011;56392;51.082;17.080;2023-02-28T23:08:36;52.03;;;22.17;;
69280;SDS011;56392;51.082;17.080;2023-02-28T23:13:59;53.03;;;21.27;;
69280;SDS011;56392;51.082;17.080;2023-02-28T23:19:25;55.70;;;22.27;;
69280;SDS011;56392;51.082;17.080;2023-02-28T23:24:49;54.10;;;23.33;;
69280;SDS011;56392;51.082;17.080;2023-02-28T23:30:13;55.13;;;22.63;;
69280;SDS011;56392;51.082;17.080;2023-02-28T23:35:38;55.10;;;23.35;;
69280;SDS011;56392;51.082;17.080;2023-02-28T23:41:01;64.60;;;24.63;;
69280;SDS011;56392;51.082;17.080;2023-02-28T23:46:28;61.05;;;26.17;;
69280;SDS011;56392;51.082;17.080;2023-02-28T23:51:53;59.78;;;25.02;;
69280;SDS011;56392;51.082;17.080;2023-02-28T23:57:16;62.10;;;25.70;;
